Time,TemperatureF,DewpointF,PressureIn,WindDirection,WindDirectionDegrees,WindSpeedMPH,WindSpeedGustMPH,Humidity,HourlyPrecipIn,Conditions,Clouds,dailyrainin,SoftwareType,DateUTC
2013-07-24 00:00:00,78.0,75.2,29.56,NNW,333,0.0,0.0,91,0.00,,,0.00,VWS V14.01,2013-07-24 04:00:00,
2013-07-24 00:01:00,78.0,75.2,29.56,NNW,333,0.0,0.0,91,0.00,,,0.00,VWS V14.01,2013-07-24 04:01:00,
2013-07-24 00:05:00,78.0,75.2,29.55,NNW,333,0.0,0.0,91,0.00,,,0.00,VWS V14.01,2013-07-24 04:05:00,
2013-07-24 00:06:00,78.0,75.2,29.55,NNW,333,0.0,0.0,91,0.00,,,0.00,VWS V14.01,2013-07-24 04:06:00,
2013-07-24 00:10:00,78.0,75.2,29.55,NNW,333,0.0,0.0,91,0.00,,,0.00,VWS V14.01,2013-07-24 04:10:00,
2013-07-24 00:11:00,78.1,75.3,29.55,NNW,333,0.0,0.0,91,0.00,,,0.00,VWS V14.01,2013-07-24 04:11:00,
2013-07-24 00:15:00,78.1,75.3,29.55,NNW,333,0.0,0.0,91,0.00,,,0.00,VWS V14.01,2013-07-24 04:15:00,
2013-07-24 00:16:00,78.0,75.2,29.55,NNW,333,0.0,0.0,91,0.00,,,0.00,VWS V14.01,2013-07-24 04:16:00,
2013-07-24 00:20:00,78.1,75.3,29.55,NNW,333,0.0,0.0,91,0.00,,,0.00,VWS V14.01,2013-07-24 04:20:00,
2013-07-24 00:21:00,78.1,75.3,29.55,NNW,333,0.0,0.0,91,0.00,,,0.00,VWS V14.01,2013-07-24 04:21:00,
2013-07-24 00:25:00,78.1,75.3,29.55,NNW,333,0.0,0.0,91,0.00,,,0.00,VWS V14.01,2013-07-24 04:25:00,
2013-07-24 00:26:00,78.1,75.3,29.55,NNW,333,0.0,0.0,91,0.00,,,0.00,VWS V14.01,2013-07-24 04:26:00,
2013-07-24 00:30:00,78.2,75.4,29.55,NNW,333,0.0,0.0,91,0.00,,,0.00,VWS V14.01,2013-07-24 04:30:00,
2013-07-24 00:31:00,78.2,75.4,29.55,NNW,333,0.0,0.0,91,0.00,,,0.00,VWS V14.01,2013-07-24 04:31:00,
2013-07-24 00:35:00,78.2,75.4,29.54,NNW,333,0.0,0.0,91,0.00,,,0.00,VWS V14.01,2013-07-24 04:35:00,
2013-07-24 00:36:00,78.1,75.3,29.54,NNW,333,0.0,0.0,91,0.00,,,0.00,VWS V14.01,2013-07-24 04:36:00,
2013-07-24 00:40:00,78.3,75.5,29.54,NNW,333,0.0,0.0,91,0.00,,,0.00,VWS V14.01,2013-07-24 04:40:00,
2013-07-24 00:41:00,78.3,75.5,29.54,NNW,333,0.0,0.0,91,0.00,,,0.00,VWS V14.01,2013-07-24 04:41:00,
2013-07-24 00:45:00,78.1,75.3,29.54,NNW,333,0.0,0.0,91,0.00,,,0.00,VWS V14.01,2013-07-24 04:45:00,
2013-07-24 00:46:00,78.1,75.3,29.54,NNW,333,0.0,0.0,91,0.00,,,0.00,VWS V14.01,2013-07-24 04:46:00,
2013-07-24 00:50:00,78.2,75.4,29.53,NNW,333,0.0,0.0,91,0.00,,,0.00,VWS V14.01,2013-07-24 04:50:00,
2013-07-24 00:51:00,78.3,75.5,29.53,NNW,333,0.0,0.0,91,0.00,,,0.00,VWS V14.01,2013-07-24 04:51:00,
2013-07-24 00:55:00,78.3,75.5,29.53,NNW,333,0.0,0.0,91,0.00,,,0.00,VWS V14.01,2013-07-24 04:55:00,
2013-07-24 00:56:00,78.3,75.5,29.53,NNW,333,0.0,0.0,91,0.00,,,0.00,VWS V14.01,2013-07-24 04:56:00,
2013-07-24 01:00:00,78.1,75.3,29.53,NNW,333,0.0,0.0,91,0.00,,,0.00,VWS V14.01,2013-07-24 05:00:00,
2013-07-24 01:01:00,78.3,75.5,29.53,NNW,333,0.0,0.0,91,0.00,,,0.00,VWS V14.01,2013-07-24 05:01:00,
2013-07-24 01:05:00,78.1,75.3,29.53,NNW,333,0.0,0.0,91,0.00,,,0.00,VWS V14.01,2013-07-24 05:05:00,
2013-07-24 01:06:00,78.1,75.3,29.53,NNW,333,0.0,0.0,91,0.00,,,0.00,VWS V14.01,2013-07-24 05:06:00,
2013-07-24 01:10:00,78.1,75.4,29.53,NNW,333,0.0,0.0,91,0.00,,,0.00,VWS V14.01,2013-07-24 05:10:00,
2013-07-24 01:11:00,78.1,75.4,29.53,NNW,333,0.0,0.0,91,0.00,,,0.00,VWS V14.01,2013-07-24 05:11:00,
2013-07-24 01:15:00,78.2,75.5,29.52,NNW,333,0.0,0.0,91,0.00,,,0.00,VWS V14.01,2013-07-24 05:15:00,
2013-07-24 01:16:00,78.2,75.5,29.52,NNW,333,0.0,0.0,91,0.00,,,0.00,VWS V14.01,2013-07-24 05:16:00,
2013-07-24 01:20:00,78.2,75.5,29.53,NNW,333,0.0,0.0,92,0.00,,,0.00,VWS V14.01,2013-07-24 05:20:00,
2013-07-24 01:21:00,78.2,75.5,29.53,NNW,333,0.0,0.0,92,0.00,,,0.00,VWS V14.01,2013-07-24 05:21:00,
2013-07-24 01:25:00,78.2,75.5,29.53,SE,135,0.0,0.0,92,0.00,,,0.00,VWS V14.01,2013-07-24 05:25:00,
2013-07-24 01:26:00,78.2,75.5,29.53,SE,135,0.0,0.0,92,0.00,,,0.00,VWS V14.01,2013-07-24 05:26:00,
2013-07-24 01:30:00,78.4,75.7,29.52,SE,135,0.0,0.0,92,0.00,,,0.00,VWS V14.01,2013-07-24 05:30:00,
2013-07-24 01:31:00,78.4,75.7,29.52,SE,135,0.0,0.0,92,0.00,,,0.00,VWS V14.01,2013-07-24 05:31:00,
2013-07-24 01:35:00,78.2,75.5,29.52,SE,135,0.0,0.0,92,0.00,,,0.00,VWS V14.01,2013-07-24 05:35:00,
2013-07-24 01:36:00,78.3,75.6,29.52,SE,135,0.0,0.0,92,0.00,,,0.00,VWS V14.01,2013-07-24 05:36:00,
2013-07-24 01:40:00,78.3,75.6,29.51,SE,135,0.0,0.0,92,0.00,,,0.00,VWS V14.01,2013-07-24 05:40:00,
2013-07-24 01:41:00,78.4,75.7,29.51,SE,135,0.0,0.0,92,0.00,,,0.00,VWS V14.01,2013-07-24 05:41:00,
2013-07-24 01:45:00,78.4,75.7,29.51,SE,135,0.0,0.0,91,0.00,,,0.00,VWS V14.01,2013-07-24 05:45:00,
2013-07-24 01:50:00,78.4,75.7,29.51,SE,135,0.0,0.0,91,0.00,,,0.00,VWS V14.01,2013-07-24 05:50:00,
2013-07-24 01:55:00,78.3,75.6,29.51,SE,135,0.0,0.0,91,0.00,,,0.00,VWS V14.01,2013-07-24 05:55:00,
2013-07-24 02:00:00,78.5,75.8,29.51,SE,135,0.0,0.0,92,0.00,,,0.00,VWS V14.01,2013-07-24 06:00:00,
2013-07-24 02:05:00,78.4,75.7,29.50,SE,135,0.0,0.0,92,0.00,,,0.00,VWS V14.01,2013-07-24 06:05:00,
2013-07-24 02:10:00,78.4,75.8,29.50,SE,135,0.0,0.0,92,0.00,,,0.00,VWS V14.01,2013-07-24 06:10:00,
2013-07-24 02:15:00,78.4,75.8,29.50,SE,135,0.0,0.0,92,0.00,,,0.00,VWS V14.01,2013-07-24 06:15:00,
2013-07-24 02:20:00,78.3,75.7,29.50,SE,135,0.0,3.0,92,0.00,,,0.00,VWS V14.01,2013-07-24 06:20:00,
2013-07-24 02:25:00,78.4,75.8,29.49,SE,135,0.0,0.0,92,0.00,,,0.00,VWS V14.01,2013-07-24 06:25:00,
2013-07-24 02:30:00,78.4,75.8,29.49,SE,135,0.0,0.0,92,0.00,,,0.00,VWS V14.01,2013-07-24 06:30:00,
2013-07-24 02:35:00,78.3,75.7,29.49,SE,135,0.0,0.0,92,0.00,,,0.00,VWS V14.01,2013-07-24 06:35:00,
2013-07-24 02:40:00,78.3,75.7,29.49,SE,135,0.0,0.0,92,0.00,,,0.00,VWS V14.01,2013-07-24 06:40:00,
2013-07-24 02:45:00,78.4,75.8,29.49,SE,135,0.0,0.0,92,0.00,,,0.00,VWS V14.01,2013-07-24 06:45:00,
2013-07-24 02:50:00,78.7,76.1,29.48,SE,135,0.0,0.0,92,0.00,,,0.00,VWS V14.01,2013-07-24 06:50:00,
2013-07-24 02:55:00,78.4,75.8,29.48,SE,135,0.0,0.0,92,0.00,,,0.00,VWS V14.01,2013-07-24 06:55:00,
2013-07-24 03:00:00,78.7,76.1,29.48,SE,135,0.0,0.0,92,0.00,,,0.00,VWS V14.01,2013-07-24 07:00:00,
2013-07-24 03:05:00,78.5,75.9,29.48,SE,135,0.0,0.0,92,0.00,,,0.00,VWS V14.01,2013-07-24 07:05:00,
2013-07-24 03:10:00,78.4,75.8,29.48,SE,135,0.0,0.0,92,0.00,,,0.00,VWS V14.01,2013-07-24 07:10:00,
2013-07-24 03:15:00,78.5,75.9,29.48,SE,135,0.0,0.0,92,0.00,,,0.00,VWS V14.01,2013-07-24 07:15:00,
2013-07-24 03:20:00,78.4,75.8,29.48,SE,135,0.0,0.0,92,0.00,,,0.00,VWS V14.01,2013-07-24 07:20:00,
2013-07-24 03:25:00,78.4,75.8,29.48,SE,135,0.0,0.0,92,0.00,,,0.00,VWS V14.01,2013-07-24 07:25:00,
2013-07-24 03:30:00,78.5,75.9,29.48,SE,135,0.0,0.0,92,0.00,,,0.00,VWS V14.01,2013-07-24 07:30:00,
2013-07-24 03:35:00,78.3,75.8,29.47,SE,135,0.0,0.0,92,0.00,,,0.00,VWS V14.01,2013-07-24 07:35:00,
2013-07-24 03:40:00,78.3,75.8,29.47,SE,135,0.0,0.0,92,0.00,,,0.00,VWS V14.01,2013-07-24 07:40:00,
2013-07-24 03:45:00,78.3,75.8,29.47,SE,135,0.0,0.0,92,0.00,,,0.00,VWS V14.01,2013-07-24 07:45:00,
2013-07-24 03:50:00,78.3,75.8,29.47,SE,135,0.0,0.0,92,0.00,,,0.00,VWS V14.01,2013-07-24 07:50:00,
2013-07-24 03:55:00,78.4,75.9,29.47,SE,135,0.0,0.0,92,0.00,,,0.00,VWS V14.01,2013-07-24 07:55:00,
2013-07-24 04:00:00,78.3,75.8,29.48,SE,135,0.0,0.0,92,0.00,,,0.00,VWS V14.01,2013-07-24 08:00:00,
2013-07-24 04:05:00,78.4,75.9,29.48,SE,135,0.0,0.0,92,0.00,,,0.00,VWS V14.01,2013-07-24 08:05:00,
2013-07-24 04:10:00,78.5,76.1,29.48,SE,135,0.0,0.0,92,0.00,,,0.00,VWS V14.01,2013-07-24 08:10:00,
2013-07-24 04:15:00,78.4,75.9,29.48,SE,135,0.0,0.0,92,0.00,,,0.00,VWS V14.01,2013-07-24 08:15:00,
2013-07-24 04:20:00,78.3,75.9,29.48,SE,135,0.0,0.0,92,0.00,,,0.00,VWS V14.01,2013-07-24 08:20:00,
2013-07-24 04:25:00,78.4,76.0,29.48,SE,135,0.0,0.0,92,0.00,,,0.00,VWS V14.01,2013-07-24 08:25:00,
2013-07-24 04:30:00,78.3,75.9,29.47,SE,135,0.0,0.0,92,0.00,,,0.00,VWS V14.01,2013-07-24 08:30:00,
2013-07-24 04:35:00,78.4,76.0,29.48,SE,135,0.0,0.0,92,0.00,,,0.00,VWS V14.01,2013-07-24 08:35:00,
2013-07-24 04:40:00,78.3,75.9,29.48,SE,135,0.0,0.0,92,0.00,,,0.00,VWS V14.01,2013-07-24 08:40:00,
2013-07-24 04:45:00,78.4,76.0,29.48,SE,135,0.0,0.0,92,0.00,,,0.00,VWS V14.01,2013-07-24 08:45:00,
2013-07-24 04:50:00,78.5,76.1,29.47,SE,135,0.0,0.0,92,0.00,,,0.00,VWS V14.01,2013-07-24 08:50:00,
2013-07-24 04:55:00,78.4,76.0,29.47,SE,135,0.0,0.0,92,0.00,,,0.00,VWS V14.01,2013-07-24 08:55:00,
2013-07-24 05:00:00,78.7,76.3,29.47,SE,135,0.0,0.0,92,0.00,,,0.00,VWS V14.01,2013-07-24 09:00:00,
2013-07-24 05:05:00,78.5,76.1,29.47,SE,135,0.0,0.0,92,0.00,,,0.00,VWS V14.01,2013-07-24 09:05:00,
2013-07-24 05:10:00,78.5,76.1,29.47,SE,135,0.0,0.0,92,0.00,,,0.00,VWS V14.01,2013-07-24 09:10:00,
2013-07-24 05:15:00,78.7,76.3,29.47,SE,135,0.0,0.0,92,0.00,,,0.00,VWS V14.01,2013-07-24 09:15:00,
2013-07-24 05:20:00,78.7,76.3,29.47,SE,135,0.0,0.0,92,0.00,,,0.00,VWS V14.01,2013-07-24 09:20:00,
2013-07-24 05:25:00,78.7,76.3,29.47,SE,135,0.0,0.0,92,0.00,,,0.00,VWS V14.01,2013-07-24 09:25:00,
2013-07-24 05:30:00,78.8,76.4,29.48,SE,135,0.0,0.0,92,0.00,,,0.00,VWS V14.01,2013-07-24 09:30:00,
2013-07-24 05:35:00,78.8,76.4,29.48,SE,135,0.0,0.0,92,0.00,,,0.00,VWS V14.01,2013-07-24 09:35:00,
2013-07-24 05:40:00,78.8,76.4,29.48,SE,135,0.0,0.0,92,0.00,,,0.00,VWS V14.01,2013-07-24 09:40:00,
2013-07-24 05:45:00,78.8,76.4,29.48,SE,135,0.0,0.0,92,0.00,,,0.00,VWS V14.01,2013-07-24 09:45:00,
2013-07-24 05:50:00,78.7,76.3,29.48,SE,135,0.0,0.0,92,0.00,,,0.00,VWS V14.01,2013-07-24 09:50:00,
2013-07-24 05:55:00,78.8,76.4,29.48,SE,135,0.0,0.0,92,0.00,,,0.00,VWS V14.01,2013-07-24 09:55:00,
2013-07-24 06:00:00,78.7,76.3,29.48,SE,135,0.0,0.0,92,0.00,,,0.00,VWS V14.01,2013-07-24 10:00:00,
2013-07-24 06:05:00,78.7,76.3,29.48,SE,135,0.0,0.0,92,0.00,,,0.00,VWS V14.01,2013-07-24 10:05:00,
2013-07-24 06:10:00,78.7,76.3,29.48,SE,135,0.0,0.0,92,0.00,,,0.00,VWS V14.01,2013-07-24 10:10:00,
2013-07-24 06:15:00,78.7,76.3,29.48,SE,135,0.0,0.0,92,0.00,,,0.00,VWS V14.01,2013-07-24 10:15:00,
2013-07-24 06:20:00,78.5,76.1,29.48,SE,135,0.0,0.0,92,0.00,,,0.00,VWS V14.01,2013-07-24 10:20:00,
2013-07-24 06:25:00,78.5,76.1,29.49,SE,135,0.0,0.0,92,0.00,,,0.00,VWS V14.01,2013-07-24 10:25:00,
2013-07-24 06:30:00,78.4,76.1,29.49,SE,135,0.0,0.0,92,0.00,,,0.00,VWS V14.01,2013-07-24 10:30:00,
2013-07-24 06:35:00,78.5,76.1,29.49,SE,135,0.0,0.0,92,0.00,,,0.00,VWS V14.01,2013-07-24 10:35:00,
2013-07-24 06:40:00,78.3,75.9,29.49,SE,135,0.0,0.0,92,0.00,,,0.00,VWS V14.01,2013-07-24 10:40:00,
2013-07-24 06:45:00,78.5,76.2,29.49,SE,135,0.0,0.0,92,0.00,,,0.00,VWS V14.01,2013-07-24 10:45:00,
2013-07-24 06:50:00,78.4,76.1,29.49,SE,135,0.0,0.0,92,0.00,,,0.00,VWS V14.01,2013-07-24 10:50:00,
2013-07-24 06:55:00,78.4,76.1,29.49,SE,135,0.0,0.0,92,0.00,,,0.00,VWS V14.01,2013-07-24 10:55:00,
2013-07-24 07:00:00,78.5,76.2,29.48,SE,135,0.0,0.0,92,0.00,,,0.00,VWS V14.01,2013-07-24 11:00:00,
2013-07-24 07:05:00,78.5,76.2,29.49,SE,135,0.0,0.0,92,0.00,,,0.00,VWS V14.01,2013-07-24 11:05:00,
2013-07-24 07:10:00,78.7,76.3,29.49,SE,135,0.0,0.0,92,0.00,,,0.00,VWS V14.01,2013-07-24 11:10:00,
2013-07-24 07:15:00,78.7,76.3,29.49,SE,135,0.0,0.0,92,0.00,,,0.00,VWS V14.01,2013-07-24 11:15:00,
2013-07-24 07:20:00,78.7,76.3,29.49,SE,135,0.0,0.0,92,0.00,,,0.00,VWS V14.01,2013-07-24 11:20:00,
2013-07-24 07:24:00,78.8,76.4,29.49,SE,135,0.0,0.0,92,0.00,,,0.00,VWS V14.01,2013-07-24 11:24:00,
2013-07-24 07:25:00,78.8,76.4,29.49,SE,135,0.0,0.0,92,0.00,,,0.00,VWS V14.01,2013-07-24 11:25:00,
2013-07-24 07:29:00,78.9,76.6,29.49,SE,135,0.0,0.0,92,0.00,,,0.00,VWS V14.01,2013-07-24 11:29:00,
2013-07-24 07:30:00,78.9,76.5,29.49,SE,135,0.0,0.0,92,0.00,,,0.00,VWS V14.01,2013-07-24 11:30:00,
2013-07-24 07:34:00,78.9,76.5,29.49,SE,135,0.0,0.0,92,0.00,,,0.00,VWS V14.01,2013-07-24 11:34:00,
2013-07-24 07:35:00,79.0,76.6,29.49,SE,135,0.0,0.0,92,0.00,,,0.00,VWS V14.01,2013-07-24 11:35:00,
2013-07-24 07:39:00,79.1,76.7,29.49,SE,135,0.0,0.0,92,0.00,,,0.00,VWS V14.01,2013-07-24 11:39:00,
2013-07-24 07:40:00,79.0,76.6,29.49,SE,135,0.0,0.0,92,0.00,,,0.00,VWS V14.01,2013-07-24 11:40:00,
2013-07-24 07:44:00,79.2,76.8,29.49,SE,135,0.0,2.7,92,0.00,,,0.00,VWS V14.01,2013-07-24 11:44:00,
2013-07-24 07:45:00,79.1,76.7,29.50,SE,135,0.0,0.0,92,0.00,,,0.00,VWS V14.01,2013-07-24 11:45:00,
2013-07-24 07:49:00,79.2,76.8,29.50,SE,135,0.0,0.0,92,0.00,,,0.00,VWS V14.01,2013-07-24 11:49:00,
2013-07-24 07:50:00,79.2,76.8,29.49,SE,135,0.0,0.0,92,0.00,,,0.00,VWS V14.01,2013-07-24 11:50:00,
2013-07-24 07:54:00,79.2,76.7,29.50,WNW,288,0.0,4.7,92,0.00,,,0.00,VWS V14.01,2013-07-24 11:54:00,
2013-07-24 07:55:00,79.3,76.8,29.50,WNW,288,0.0,0.0,92,0.00,,,0.00,VWS V14.01,2013-07-24 11:55:00,
2013-07-24 07:59:00,79.5,77.0,29.50,WNW,288,0.0,0.0,92,0.00,,,0.00,VWS V14.01,2013-07-24 11:59:00,
2013-07-24 08:00:00,79.4,76.9,29.50,WNW,288,0.0,0.0,92,0.00,,,0.00,VWS V14.01,2013-07-24 12:00:00,
2013-07-24 08:04:00,79.5,77.0,29.50,WNW,288,0.0,0.0,92,0.00,,,0.00,VWS V14.01,2013-07-24 12:04:00,
2013-07-24 08:05:00,79.8,77.3,29.50,WNW,288,0.0,0.0,92,0.00,,,0.00,VWS V14.01,2013-07-24 12:05:00,
2013-07-24 08:09:00,79.8,77.2,29.50,WNW,288,0.0,0.0,92,0.00,,,0.00,VWS V14.01,2013-07-24 12:09:00,
2013-07-24 08:10:00,79.8,77.2,29.50,WNW,288,0.0,0.0,92,0.00,,,0.00,VWS V14.01,2013-07-24 12:10:00,
2013-07-24 08:14:00,79.9,77.3,29.51,WNW,288,0.0,0.0,92,0.00,,,0.00,VWS V14.01,2013-07-24 12:14:00,
2013-07-24 08:15:00,80.0,77.4,29.50,WNW,288,0.0,0.0,92,0.00,,,0.00,VWS V14.01,2013-07-24 12:15:00,
2013-07-24 08:19:00,80.2,77.5,29.51,SSE,159,0.0,3.3,92,0.00,,,0.00,VWS V14.01,2013-07-24 12:19:00,
2013-07-24 08:20:00,80.1,77.4,29.51,SSE,159,0.0,0.0,92,0.00,,,0.00,VWS V14.01,2013-07-24 12:20:00,
2013-07-24 08:24:00,80.4,77.7,29.51,SSE,159,0.0,0.0,91,0.00,,,0.00,VWS V14.01,2013-07-24 12:24:00,
2013-07-24 08:25:00,80.3,77.5,29.51,SSE,159,0.0,0.0,91,0.00,,,0.00,VWS V14.01,2013-07-24 12:25:00,
2013-07-24 08:29:00,80.5,77.7,29.51,SSE,159,0.0,0.0,91,0.00,,,0.00,VWS V14.01,2013-07-24 12:29:00,
2013-07-24 08:30:00,80.3,77.5,29.51,SSE,159,0.0,0.0,91,0.00,,,0.00,VWS V14.01,2013-07-24 12:30:00,
2013-07-24 08:34:00,80.5,77.7,29.51,SSE,159,0.0,0.0,91,0.00,,,0.00,VWS V14.01,2013-07-24 12:34:00,
2013-07-24 08:35:00,80.4,77.6,29.51,SSE,155,0.0,3.4,91,0.00,,,0.00,VWS V14.01,2013-07-24 12:35:00,
2013-07-24 08:39:00,80.6,77.7,29.51,SSE,155,0.0,0.0,91,0.00,,,0.00,VWS V14.01,2013-07-24 12:39:00,
2013-07-24 08:40:00,80.6,77.7,29.51,SSE,155,1.6,1.6,91,0.00,,,0.00,VWS V14.01,2013-07-24 12:40:00,
2013-07-24 08:44:00,80.8,77.9,29.51,SE,124,0.0,0.0,91,0.00,,,0.00,VWS V14.01,2013-07-24 12:44:00,
2013-07-24 08:45:00,80.9,78.0,29.51,SE,124,0.0,0.0,91,0.00,,,0.00,VWS V14.01,2013-07-24 12:45:00,
2013-07-24 08:49:00,81.2,78.2,29.51,South,184,0.0,4.5,91,0.00,,,0.00,VWS V14.01,2013-07-24 12:49:00,
2013-07-24 08:50:00,81.2,78.2,29.51,South,184,0.0,0.0,91,0.00,,,0.00,VWS V14.01,2013-07-24 12:50:00,
2013-07-24 08:54:00,81.3,78.3,29.51,South,187,0.0,3.5,91,0.00,,,0.00,VWS V14.01,2013-07-24 12:54:00,
2013-07-24 08:55:00,81.4,78.4,29.51,WNW,291,0.0,4.6,90,0.00,,,0.00,VWS V14.01,2013-07-24 12:55:00,
2013-07-24 08:59:00,81.3,78.2,29.51,East,87,0.0,0.0,90,0.00,,,0.00,VWS V14.01,2013-07-24 12:59:00,
2013-07-24 09:00:00,81.6,78.4,29.52,East,87,0.0,0.0,90,0.00,,,0.00,VWS V14.01,2013-07-24 13:00:00,
2013-07-24 09:04:00,81.8,78.6,29.52,SW,229,0.0,4.8,90,0.00,,,0.00,VWS V14.01,2013-07-24 13:04:00,
2013-07-24 09:05:00,81.8,78.6,29.52,West,262,0.0,3.4,90,0.00,,,0.00,VWS V14.01,2013-07-24 13:05:00,
2013-07-24 09:09:00,82.0,78.7,29.52,SE,132,0.0,4.2,90,0.00,,,0.00,VWS V14.01,2013-07-24 13:09:00,
2013-07-24 09:10:00,82.1,78.7,29.52,SE,132,0.0,0.0,90,0.00,,,0.00,VWS V14.01,2013-07-24 13:10:00,
2013-07-24 09:14:00,82.2,78.7,29.52,West,281,0.0,6.2,89,0.00,,,0.00,VWS V14.01,2013-07-24 13:14:00,
2013-07-24 09:15:00,82.2,78.7,29.52,West,281,0.0,0.0,89,0.00,,,0.00,VWS V14.01,2013-07-24 13:15:00,
2013-07-24 09:19:00,82.5,78.8,29.52,West,281,0.0,8.3,89,0.00,,,0.00,VWS V14.01,2013-07-24 13:19:00,
2013-07-24 09:20:00,82.4,78.7,29.52,NW,304,0.0,7.0,88,0.00,,,0.00,VWS V14.01,2013-07-24 13:20:00,
2013-07-24 09:24:00,82.5,78.6,29.52,ENE,60,0.0,5.1,88,0.00,,,0.00,VWS V14.01,2013-07-24 13:24:00,
2013-07-24 09:25:00,82.8,78.8,29.52,ENE,60,0.0,0.0,88,0.00,,,0.00,VWS V14.01,2013-07-24 13:25:00,
2013-07-24 09:29:00,83.1,78.8,29.52,South,174,0.0,3.4,87,0.00,,,0.00,VWS V14.01,2013-07-24 13:29:00,
2013-07-24 09:30:00,83.1,78.8,29.52,SSE,163,3.5,5.7,87,0.00,,,0.00,VWS V14.01,2013-07-24 13:30:00,
2013-07-24 09:34:00,83.3,78.8,29.52,West,264,4.5,9.4,86,0.00,,,0.00,VWS V14.01,2013-07-24 13:34:00,
2013-07-24 09:35:00,83.4,78.8,29.52,South,177,3.4,6.2,86,0.00,,,0.00,VWS V14.01,2013-07-24 13:35:00,
2013-07-24 09:39:00,83.4,78.6,29.52,WSW,246,0.0,7.6,86,0.00,,,0.00,VWS V14.01,2013-07-24 13:39:00,
2013-07-24 09:40:00,83.4,78.7,29.52,WSW,246,0.0,0.0,86,0.00,,,0.00,VWS V14.01,2013-07-24 13:40:00,
2013-07-24 09:44:00,83.5,78.7,29.52,SW,215,0.0,4.7,86,0.00,,,0.00,VWS V14.01,2013-07-24 13:44:00,
2013-07-24 09:45:00,83.5,78.8,29.52,SW,215,0.0,5.6,86,0.00,,,0.00,VWS V14.01,2013-07-24 13:45:00,
2013-07-24 09:49:00,83.5,78.6,29.52,SE,142,0.0,3.2,85,0.00,,,0.00,VWS V14.01,2013-07-24 13:49:00,
2013-07-24 09:50:00,83.8,78.9,29.52,NNW,335,2.9,5.7,85,0.00,,,0.00,VWS V14.01,2013-07-24 13:50:00,
2013-07-24 09:54:00,83.9,78.6,29.52,SSW,205,0.0,0.0,84,0.00,,,0.00,VWS V14.01,2013-07-24 13:54:00,
2013-07-24 09:55:00,84.1,78.6,29.52,WSW,243,8.0,10.6,84,0.00,,,0.00,VWS V14.01,2013-07-24 13:55:00,
2013-07-24 09:59:00,84.4,78.7,29.52,SSE,158,0.0,0.0,83,0.00,,,0.00,VWS V14.01,2013-07-24 13:59:00,
2013-07-24 10:00:00,84.4,78.7,29.52,NW,304,0.0,4.3,83,0.00,,,0.00,VWS V14.01,2013-07-24 14:00:00,
2013-07-24 10:04:00,84.7,79.0,29.52,NW,318,0.0,4.8,83,0.00,,,0.00,VWS V14.01,2013-07-24 14:04:00,
2013-07-24 10:05:00,84.9,79.1,29.52,NW,318,3.2,3.2,83,0.00,,,0.00,VWS V14.01,2013-07-24 14:05:00,
2013-07-24 10:09:00,85.2,79.1,29.52,WNW,302,0.0,5.1,82,0.00,,,0.00,VWS V14.01,2013-07-24 14:09:00,
2013-07-24 10:10:00,85.1,78.9,29.52,South,187,1.1,5.8,82,0.00,,,0.00,VWS V14.01,2013-07-24 14:10:00,
2013-07-24 10:14:00,85.0,78.8,29.52,SSW,194,3.2,4.7,82,0.00,,,0.00,VWS V14.01,2013-07-24 14:14:00,
2013-07-24 10:15:00,85.2,78.9,29.52,South,186,2.5,4.4,81,0.00,,,0.00,VWS V14.01,2013-07-24 14:15:00,
2013-07-24 10:19:00,85.1,78.6,29.52,SW,224,0.0,4.8,81,0.00,,,0.00,VWS V14.01,2013-07-24 14:19:00,
2013-07-24 10:20:00,85.2,78.7,29.52,SE,138,2.9,4.4,81,0.00,,,0.00,VWS V14.01,2013-07-24 14:20:00,
2013-07-24 10:24:00,85.4,78.9,29.52,ENE,63,0.0,11.2,81,0.00,,,0.00,VWS V14.01,2013-07-24 14:24:00,
2013-07-24 10:25:00,85.5,78.9,29.52,SE,141,0.0,7.8,81,0.00,,,0.00,VWS V14.01,2013-07-24 14:25:00,
2013-07-24 10:29:00,85.6,79.1,29.52,WNW,297,4.5,7.3,81,0.00,,,0.00,VWS V14.01,2013-07-24 14:29:00,
2013-07-24 10:30:00,85.6,79.1,29.52,NW,311,5.8,7.6,81,0.00,,,0.00,VWS V14.01,2013-07-24 14:30:00,
2013-07-24 10:34:00,85.7,79.0,29.52,West,259,0.0,10.1,80,0.00,,,0.00,VWS V14.01,2013-07-24 14:34:00,
2013-07-24 10:35:00,85.7,78.8,29.52,North,349,3.4,7.8,80,0.00,,,0.00,VWS V14.01,2013-07-24 14:35:00,
2013-07-24 10:39:00,85.5,78.8,29.52,NNW,342,5.0,8.0,81,0.00,,,0.00,VWS V14.01,2013-07-24 14:39:00,
2013-07-24 10:44:00,85.1,78.7,29.52,WNW,300,0.0,2.9,81,0.00,,,0.00,VWS V14.01,2013-07-24 14:44:00,
2013-07-24 10:45:00,85.0,78.7,29.52,NNW,333,4.3,4.4,82,0.00,,,0.00,VWS V14.01,2013-07-24 14:45:00,
2013-07-24 10:49:00,85.0,78.8,29.52,NNE,22,3.0,10.4,82,0.00,,,0.00,VWS V14.01,2013-07-24 14:49:00,
2013-07-24 10:50:00,84.9,79.0,29.52,North,359,0.0,6.3,83,0.04,,,0.04,VWS V14.01,2013-07-24 14:50:00,
2013-07-24 10:54:00,84.4,78.9,29.52,WNW,301,0.0,1.8,84,0.13,,,0.13,VWS V14.01,2013-07-24 14:54:00,
2013-07-24 10:55:00,84.0,78.5,29.52,WNW,297,0.0,7.4,84,0.15,,,0.15,VWS V14.01,2013-07-24 14:55:00,
2013-07-24 10:59:00,83.5,78.3,29.52,NNW,335,0.0,0.0,84,0.16,,,0.16,VWS V14.01,2013-07-24 14:59:00,
2013-07-24 11:00:00,83.2,78.3,29.52,NNW,335,0.0,0.0,85,0.16,,,0.16,VWS V14.01,2013-07-24 15:00:00,
2013-07-24 11:04:00,82.8,78.2,29.51,West,264,0.0,0.0,86,0.16,,,0.16,VWS V14.01,2013-07-24 15:04:00,
2013-07-24 11:05:00,82.6,78.2,29.51,WNW,284,0.0,3.4,87,0.16,,,0.16,VWS V14.01,2013-07-24 15:05:00,
2013-07-24 11:09:00,82.5,78.6,29.51,NW,305,0.0,0.0,88,0.16,,,0.16,VWS V14.01,2013-07-24 15:09:00,
2013-07-24 11:10:00,82.4,78.8,29.51,NW,308,0.0,3.4,89,0.16,,,0.16,VWS V14.01,2013-07-24 15:10:00,
2013-07-24 11:14:00,82.4,78.9,29.51,NW,308,0.0,0.0,89,0.16,,,0.16,VWS V14.01,2013-07-24 15:14:00,
2013-07-24 11:15:00,82.5,79.4,29.51,WNW,295,4.4,4.4,90,0.16,,,0.16,VWS V14.01,2013-07-24 15:15:00,
2013-07-24 11:19:00,83.1,80.1,29.51,West,267,0.0,3.4,91,0.16,,,0.16,VWS V14.01,2013-07-24 15:19:00,
2013-07-24 11:20:00,83.4,80.4,29.51,NNW,332,0.0,3.4,91,0.16,,,0.16,VWS V14.01,2013-07-24 15:20:00,
2013-07-24 11:29:00,83.6,79.9,29.52,North,3,0.0,0.0,89,0.00,,,0.16,VWS V14.01,2013-07-24 15:29:00,
2013-07-24 11:34:00,83.5,79.6,29.52,North,359,2.2,10.4,88,0.24,,,0.24,VWS V14.01,2013-07-24 15:34:00,
2013-07-24 11:39:00,82.6,77.2,29.52,WNW,294,0.0,5.4,84,0.27,,,0.27,VWS V14.01,2013-07-24 15:39:00,
2013-07-24 11:44:00,82.3,77.8,29.52,NW,304,0.0,0.0,86,0.27,,,0.27,VWS V14.01,2013-07-24 15:44:00,
2013-07-24 11:49:00,82.1,78.4,29.52,NW,326,0.0,7.4,89,0.27,,,0.27,VWS V14.01,2013-07-24 15:49:00,
2013-07-24 11:54:00,82.2,79.0,29.52,NW,326,0.0,0.0,90,0.23,,,0.27,VWS V14.01,2013-07-24 15:54:00,
2013-07-24 11:59:00,82.7,79.7,29.52,NW,326,0.0,0.0,91,0.12,,,0.27,VWS V14.01,2013-07-24 15:59:00,
2013-07-24 12:04:00,82.9,79.4,29.52,SSW,201,4.7,4.9,89,0.11,,,0.27,VWS V14.01,2013-07-24 16:04:00,
2013-07-24 12:09:00,83.4,80.2,29.52,West,264,0.0,7.2,90,0.11,,,0.27,VWS V14.01,2013-07-24 16:09:00,
2013-07-24 12:14:00,82.8,78.6,29.52,SSE,158,0.0,3.5,87,0.14,,,0.31,VWS V14.01,2013-07-24 16:14:00,
2013-07-24 12:19:00,82.4,78.1,29.52,WNW,288,5.8,8.0,87,0.17,,,0.33,VWS V14.01,2013-07-24 16:19:00,
2013-07-24 12:24:00,81.8,77.3,29.52,NNW,339,3.1,4.2,86,0.17,,,0.33,VWS V14.01,2013-07-24 16:24:00,
2013-07-24 12:29:00,81.1,76.8,29.52,West,269,0.0,4.5,87,0.20,,,0.37,VWS V14.01,2013-07-24 16:29:00,
2013-07-24 12:34:00,80.4,76.4,29.52,NW,309,0.0,0.0,88,0.22,,,0.39,VWS V14.01,2013-07-24 16:34:00,
2013-07-24 12:39:00,80.4,76.8,29.52,NW,307,0.0,4.3,89,0.12,,,0.39,VWS V14.01,2013-07-24 16:39:00,
2013-07-24 12:44:00,80.3,77.1,29.52,West,270,0.0,2.4,90,0.12,,,0.39,VWS V14.01,2013-07-24 16:44:00,
2013-07-24 12:49:00,80.3,77.2,29.52,NNW,347,0.0,3.2,90,0.12,,,0.39,VWS V14.01,2013-07-24 16:49:00,
2013-07-24 12:54:00,80.2,77.2,29.52,West,273,0.0,0.0,90,0.12,,,0.39,VWS V14.01,2013-07-24 16:54:00,
2013-07-24 12:59:00,80.5,77.5,29.53,NW,308,0.0,3.0,91,0.12,,,0.39,VWS V14.01,2013-07-24 16:59:00,
2013-07-24 13:04:00,80.5,77.4,29.53,North,6,0.0,0.0,90,0.12,,,0.39,VWS V14.01,2013-07-24 17:04:00,
2013-07-24 13:09:00,80.4,77.1,29.55,North,356,3.2,8.5,90,0.12,,,0.39,VWS V14.01,2013-07-24 17:09:00,
2013-07-24 13:14:00,79.8,76.3,29.56,North,359,4.8,11.1,89,0.19,,,0.48,VWS V14.01,2013-07-24 17:14:00,
2013-07-24 13:19:00,78.8,75.5,29.55,North,0,7.0,8.4,90,0.22,,,0.53,VWS V14.01,2013-07-24 17:19:00,
2013-07-24 13:24:00,78.3,75.3,29.54,NNW,335,8.1,10.0,90,0.29,,,0.62,VWS V14.01,2013-07-24 17:24:00,
2013-07-24 13:29:00,78.0,75.0,29.53,North,10,0.0,6.2,90,0.34,,,0.68,VWS V14.01,2013-07-24 17:29:00,
2013-07-24 13:34:00,77.7,74.8,29.52,NNE,18,0.0,0.0,91,0.31,,,0.70,VWS V14.01,2013-07-24 17:34:00,
2013-07-24 13:39:00,77.4,74.5,29.52,WNW,288,0.0,0.0,91,0.32,,,0.71,VWS V14.01,2013-07-24 17:39:00,
2013-07-24 13:44:00,77.5,74.6,29.52,WNW,288,0.0,0.0,91,0.32,,,0.71,VWS V14.01,2013-07-24 17:44:00,
2013-07-24 13:49:00,77.5,74.6,29.51,WNW,288,0.0,0.0,91,0.33,,,0.72,VWS V14.01,2013-07-24 17:49:00,
2013-07-24 13:54:00,77.7,74.8,29.51,WNW,288,0.0,0.0,91,0.34,,,0.73,VWS V14.01,2013-07-24 17:54:00,
2013-07-24 13:59:00,77.7,74.9,29.51,WNW,288,0.0,0.0,91,0.35,,,0.74,VWS V14.01,2013-07-24 17:59:00,
2013-07-24 14:04:00,77.7,74.9,29.51,WNW,288,0.0,0.0,91,0.36,,,0.75,VWS V14.01,2013-07-24 18:04:00,
2013-07-24 14:09:00,77.8,75.0,29.51,WNW,288,0.0,0.0,91,0.36,,,0.75,VWS V14.01,2013-07-24 18:09:00,
2013-07-24 14:14:00,77.7,75.0,29.51,WNW,288,0.0,0.0,91,0.34,,,0.75,VWS V14.01,2013-07-24 18:14:00,
2013-07-24 14:19:00,77.9,75.2,29.51,WNW,288,0.0,0.0,92,0.26,,,0.75,VWS V14.01,2013-07-24 18:19:00,
2013-07-24 14:24:00,77.9,75.2,29.50,WNW,288,0.0,0.0,92,0.19,,,0.75,VWS V14.01,2013-07-24 18:24:00,
2013-07-24 14:29:00,78.0,75.4,29.50,WNW,288,0.0,0.0,92,0.11,,,0.75,VWS V14.01,2013-07-24 18:29:00,
2013-07-24 14:34:00,78.3,75.7,29.50,WNW,288,0.0,0.0,92,0.06,,,0.75,VWS V14.01,2013-07-24 18:34:00,
2013-07-24 14:39:00,78.4,75.8,29.49,WNW,288,0.0,0.0,92,0.04,,,0.75,VWS V14.01,2013-07-24 18:39:00,
2013-07-24 14:44:00,78.7,76.1,29.49,WNW,288,0.0,0.0,92,0.04,,,0.75,VWS V14.01,2013-07-24 18:44:00,
2013-07-24 14:49:00,78.9,76.3,29.49,WNW,288,0.0,0.0,92,0.04,,,0.75,VWS V14.01,2013-07-24 18:49:00,
2013-07-24 14:54:00,79.0,76.1,29.49,WNW,288,0.0,0.0,91,0.03,,,0.75,VWS V14.01,2013-07-24 18:54:00,
2013-07-24 14:59:00,79.1,75.8,29.49,WNW,288,0.0,0.0,90,0.02,,,0.75,VWS V14.01,2013-07-24 18:59:00,
2013-07-24 15:04:00,79.1,75.5,29.49,WNW,288,0.0,0.0,89,0.01,,,0.75,VWS V14.01,2013-07-24 19:04:00,
2013-07-24 15:09:00,79.5,75.8,29.49,WNW,288,0.0,0.0,89,0.00,,,0.75,VWS V14.01,2013-07-24 19:09:00,
2013-07-24 15:14:00,79.8,75.9,29.49,NW,311,0.0,3.2,88,0.00,,,0.75,VWS V14.01,2013-07-24 19:14:00,
2013-07-24 15:19:00,80.0,76.2,29.49,NW,311,0.0,0.0,88,0.00,,,0.75,VWS V14.01,2013-07-24 19:19:00,
2013-07-24 15:24:00,80.3,76.0,29.49,West,277,5.5,6.1,87,0.00,,,0.75,VWS V14.01,2013-07-24 19:24:00,
2013-07-24 15:28:00,80.5,75.7,29.49,WSW,249,0.0,0.0,85,0.00,,,0.75,VWS V14.01,2013-07-24 19:28:00,
2013-07-24 15:33:00,81.0,76.7,29.49,NNW,338,0.0,0.0,87,0.00,,,0.75,VWS V14.01,2013-07-24 19:33:00,
2013-07-24 15:38:00,81.6,76.5,29.49,NNE,14,0.0,3.1,84,0.00,,,0.75,VWS V14.01,2013-07-24 19:38:00,
2013-07-24 15:43:00,82.1,76.4,29.49,NNW,332,4.3,5.6,83,0.00,,,0.75,VWS V14.01,2013-07-24 19:43:00,
2013-07-24 15:48:00,82.4,76.5,29.48,SW,233,0.0,0.0,82,0.00,,,0.75,VWS V14.01,2013-07-24 19:48:00,
2013-07-24 15:53:00,82.7,76.9,29.48,SW,233,0.0,0.0,83,0.00,,,0.75,VWS V14.01,2013-07-24 19:53:00,
2013-07-24 15:58:00,83.1,77.2,29.48,WSW,238,0.0,0.0,82,0.00,,,0.75,VWS V14.01,2013-07-24 19:58:00,
2013-07-24 16:03:00,83.1,76.7,29.48,WSW,238,0.0,0.0,81,0.00,,,0.75,VWS V14.01,2013-07-24 20:03:00,
2013-07-24 16:08:00,83.3,77.0,29.47,NW,307,0.0,0.0,81,0.00,,,0.75,VWS V14.01,2013-07-24 20:08:00,
2013-07-24 16:13:00,83.5,77.3,29.47,NW,307,0.0,0.0,82,0.00,,,0.75,VWS V14.01,2013-07-24 20:13:00,
2013-07-24 16:18:00,83.7,77.2,29.46,South,188,0.0,6.4,81,0.00,,,0.75,VWS V14.01,2013-07-24 20:18:00,
2013-07-24 16:23:00,83.9,77.0,29.46,WSW,253,0.0,2.9,80,0.00,,,0.75,VWS V14.01,2013-07-24 20:23:00,
2013-07-24 16:28:00,84.0,76.8,29.46,West,281,0.0,4.6,79,0.00,,,0.75,VWS V14.01,2013-07-24 20:28:00,
2013-07-24 16:33:00,84.3,77.1,29.45,NNW,336,0.0,0.0,79,0.00,,,0.75,VWS V14.01,2013-07-24 20:33:00,
2013-07-24 16:38:00,84.6,77.1,29.45,NNW,336,0.0,0.0,78,0.00,,,0.75,VWS V14.01,2013-07-24 20:38:00,
2013-07-24 16:43:00,85.0,77.7,29.45,NNW,336,0.0,2.4,79,0.00,,,0.75,VWS V14.01,2013-07-24 20:43:00,
2013-07-24 16:48:00,85.5,77.7,29.45,South,181,0.0,3.3,78,0.00,,,0.75,VWS V14.01,2013-07-24 20:48:00,
2013-07-24 16:53:00,85.7,78.1,29.45,SW,214,0.0,5.2,78,0.00,,,0.75,VWS V14.01,2013-07-24 20:53:00,
2013-07-24 16:58:00,86.0,77.6,29.45,West,263,0.0,6.5,76,0.00,,,0.75,VWS V14.01,2013-07-24 20:58:00,
2013-07-24 17:03:00,86.2,78.0,29.45,SW,224,1.9,3.4,77,0.00,,,0.75,VWS V14.01,2013-07-24 21:03:00,
2013-07-24 17:08:00,86.4,77.7,29.45,SSW,200,3.3,10.3,76,0.00,,,0.75,VWS V14.01,2013-07-24 21:08:00,
2013-07-24 17:13:00,86.7,78.0,29.45,WSW,238,0.0,6.1,76,0.00,,,0.75,VWS V14.01,2013-07-24 21:13:00,
2013-07-24 17:18:00,86.9,77.6,29.45,WNW,284,4.8,13.0,74,0.00,,,0.75,VWS V14.01,2013-07-24 21:18:00,
2013-07-24 17:23:00,86.9,77.7,29.45,SSW,207,3.4,3.5,74,0.00,,,0.75,VWS V14.01,2013-07-24 21:23:00,
2013-07-24 17:28:00,87.1,78.1,29.45,South,191,0.0,7.5,75,0.00,,,0.75,VWS V14.01,2013-07-24 21:28:00,
2013-07-24 17:33:00,87.0,77.8,29.45,NNW,339,0.0,5.3,74,0.00,,,0.75,VWS V14.01,2013-07-24 21:33:00,
2013-07-24 17:38:00,87.1,78.1,29.45,South,177,2.7,4.3,75,0.00,,,0.75,VWS V14.01,2013-07-24 21:38:00,
2013-07-24 17:43:00,87.3,78.0,29.45,North,357,0.0,8.3,74,0.00,,,0.75,VWS V14.01,2013-07-24 21:43:00,
2013-07-24 17:48:00,87.4,78.3,29.45,West,281,0.0,0.0,74,0.00,,,0.75,VWS V14.01,2013-07-24 21:48:00,
2013-07-24 17:53:00,87.5,78.4,29.45,SW,231,3.4,9.7,74,0.00,,,0.75,VWS V14.01,2013-07-24 21:53:00,
2013-07-24 17:58:00,87.6,78.6,29.46,West,276,5.2,7.0,75,0.00,,,0.75,VWS V14.01,2013-07-24 21:58:00,
2013-07-24 18:03:00,87.5,78.2,29.46,WNW,302,0.0,4.3,74,0.00,,,0.75,VWS V14.01,2013-07-24 22:03:00,
2013-07-24 18:08:00,87.5,77.7,29.45,NW,308,3.5,9.1,73,0.00,,,0.75,VWS V14.01,2013-07-24 22:08:00,
2013-07-24 18:13:00,87.5,77.9,29.45,SSW,204,0.0,0.0,73,0.00,,,0.75,VWS V14.01,2013-07-24 22:13:00,
2013-07-24 18:18:00,87.3,77.4,29.45,North,359,0.0,7.3,73,0.00,,,0.75,VWS V14.01,2013-07-24 22:18:00,
2013-07-24 18:23:00,87.2,77.6,29.45,West,269,0.0,6.3,73,0.00,,,0.75,VWS V14.01,2013-07-24 22:23:00,
2013-07-24 18:28:00,87.0,77.5,29.46,NNW,329,3.5,10.9,74,0.00,,,0.75,VWS V14.01,2013-07-24 22:28:00,
2013-07-24 18:33:00,87.0,77.9,29.45,South,187,0.0,0.0,74,0.00,,,0.75,VWS V14.01,2013-07-24 22:33:00,
2013-07-24 18:38:00,86.8,77.7,29.45,West,263,0.0,12.1,74,0.00,,,0.75,VWS V14.01,2013-07-24 22:38:00,
2013-07-24 18:43:00,87.0,77.8,29.45,SW,217,0.0,6.8,74,0.00,,,0.75,VWS V14.01,2013-07-24 22:43:00,
2013-07-24 18:48:00,86.9,77.9,29.45,SSE,159,0.0,0.0,75,0.00,,,0.75,VWS V14.01,2013-07-24 22:48:00,
2013-07-24 18:53:00,86.8,77.8,29.45,SSE,166,0.0,3.4,75,0.00,,,0.75,VWS V14.01,2013-07-24 22:53:00,
2013-07-24 18:58:00,86.8,77.7,29.46,NNE,22,1.7,6.0,74,0.00,,,0.75,VWS V14.01,2013-07-24 22:58:00,
2013-07-24 19:03:00,86.6,77.7,29.46,SSE,156,0.0,0.0,75,0.00,,,0.75,VWS V14.01,2013-07-24 23:03:00,
2013-07-24 19:08:00,86.5,77.9,29.46,SW,225,0.0,4.8,76,0.00,,,0.75,VWS V14.01,2013-07-24 23:08:00,
2013-07-24 19:13:00,86.5,78.0,29.46,SSE,155,3.4,3.4,76,0.00,,,0.75,VWS V14.01,2013-07-24 23:13:00,
2013-07-24 19:18:00,86.3,78.1,29.46,North,354,0.0,0.0,77,0.00,,,0.75,VWS V14.01,2013-07-24 23:18:00,
2013-07-24 19:23:00,86.2,77.9,29.46,West,263,0.0,4.3,76,0.00,,,0.75,VWS V14.01,2013-07-24 23:23:00,
2013-07-24 19:28:00,86.2,78.2,29.46,West,281,4.2,5.7,77,0.00,,,0.75,VWS V14.01,2013-07-24 23:28:00,
2013-07-24 19:33:00,86.0,77.8,29.46,South,190,0.0,5.4,77,0.00,,,0.75,VWS V14.01,2013-07-24 23:33:00,
2013-07-24 19:38:00,85.9,77.9,29.47,North,359,0.0,3.4,77,0.00,,,0.75,VWS V14.01,2013-07-24 23:38:00,
2013-07-24 19:43:00,86.0,78.0,29.47,West,264,0.0,0.0,77,0.00,,,0.75,VWS V14.01,2013-07-24 23:43:00,
2013-07-24 19:48:00,85.7,77.7,29.47,North,10,0.0,8.9,77,0.00,,,0.75,VWS V14.01,2013-07-24 23:48:00,
2013-07-24 19:53:00,85.8,78.0,29.48,NW,326,0.0,2.5,78,0.00,,,0.75,VWS V14.01,2013-07-24 23:53:00,
2013-07-24 19:58:00,85.6,78.0,29.48,WNW,290,0.0,3.4,78,0.00,,,0.75,VWS V14.01,2013-07-24 23:58:00,
2013-07-24 20:03:00,85.5,78.0,29.48,NW,305,0.0,0.0,78,0.00,,,0.75,VWS V14.01,2013-07-25 00:03:00,
2013-07-24 20:08:00,85.4,77.9,29.48,NW,305,0.0,0.0,78,0.00,,,0.75,VWS V14.01,2013-07-25 00:08:00,
2013-07-24 20:13:00,85.3,77.8,29.48,NW,308,0.0,0.0,78,0.00,,,0.75,VWS V14.01,2013-07-25 00:13:00,
2013-07-24 20:18:00,85.1,77.6,29.47,West,281,3.3,8.7,78,0.00,,,0.75,VWS V14.01,2013-07-25 00:18:00,
2013-07-24 20:23:00,84.9,77.5,29.47,South,191,0.0,2.1,79,0.00,,,0.75,VWS V14.01,2013-07-25 00:23:00,
2013-07-24 20:28:00,84.7,77.5,29.47,South,191,0.0,0.0,79,0.00,,,0.75,VWS V14.01,2013-07-25 00:28:00,
2013-07-24 20:33:00,84.4,77.3,29.48,North,359,0.0,3.4,79,0.00,,,0.75,VWS V14.01,2013-07-25 00:33:00,
2013-07-24 20:38:00,84.4,77.5,29.47,South,180,4.3,4.3,80,0.00,,,0.75,VWS V14.01,2013-07-25 00:38:00,
2013-07-24 20:43:00,84.3,77.5,29.47,West,264,0.0,5.8,80,0.00,,,0.75,VWS V14.01,2013-07-25 00:43:00,
2013-07-24 20:48:00,84.3,77.5,29.47,West,273,0.0,0.0,80,0.00,,,0.75,VWS V14.01,2013-07-25 00:48:00,
2013-07-24 20:53:00,84.3,77.7,29.47,NNW,332,3.5,6.0,80,0.00,,,0.75,VWS V14.01,2013-07-25 00:53:00,
2013-07-24 20:58:00,84.3,77.7,29.47,SW,231,0.0,3.2,80,0.00,,,0.75,VWS V14.01,2013-07-25 00:58:00,
2013-07-24 21:03:00,84.2,77.4,29.47,WNW,292,0.0,0.0,80,0.00,,,0.75,VWS V14.01,2013-07-25 01:03:00,
2013-07-24 21:08:00,84.0,77.4,29.47,NNW,339,0.0,3.3,81,0.00,,,0.75,VWS V14.01,2013-07-25 01:08:00,
2013-07-24 21:13:00,84.1,77.7,29.47,NNW,335,5.7,5.7,81,0.00,,,0.75,VWS V14.01,2013-07-25 01:13:00,
2013-07-24 21:18:00,83.9,77.4,29.47,West,278,0.0,3.4,81,0.00,,,0.75,VWS V14.01,2013-07-25 01:18:00,
2013-07-24 21:23:00,83.9,77.5,29.48,NW,312,0.0,0.0,81,0.00,,,0.75,VWS V14.01,2013-07-25 01:23:00,
2013-07-24 21:28:00,83.8,77.5,29.48,NW,312,0.0,0.0,81,0.00,,,0.75,VWS V14.01,2013-07-25 01:28:00,
2013-07-24 21:33:00,83.5,77.4,29.48,NW,312,0.0,0.0,82,0.00,,,0.75,VWS V14.01,2013-07-25 01:33:00,
2013-07-24 21:38:00,83.5,77.5,29.48,NW,312,0.0,0.0,82,0.00,,,0.75,VWS V14.01,2013-07-25 01:38:00,
2013-07-24 21:42:00,83.4,77.7,29.48,NW,312,0.0,0.0,83,0.00,,,0.75,VWS V14.01,2013-07-25 01:42:00,
2013-07-24 21:47:00,83.3,77.6,29.48,NW,312,0.0,0.0,83,0.00,,,0.75,VWS V14.01,2013-07-25 01:47:00,
2013-07-24 21:52:00,83.3,77.7,29.48,NW,312,0.0,0.0,83,0.00,,,0.75,VWS V14.01,2013-07-25 01:52:00,
2013-07-24 21:57:00,83.1,77.8,29.48,WNW,285,0.0,0.0,84,0.00,,,0.75,VWS V14.01,2013-07-25 01:57:00,
2013-07-24 22:02:00,83.0,77.8,29.48,NW,309,0.0,0.0,84,0.00,,,0.75,VWS V14.01,2013-07-25 02:02:00,
2013-07-24 22:07:00,83.0,77.8,29.48,NW,309,0.0,0.0,84,0.00,,,0.75,VWS V14.01,2013-07-25 02:07:00,
2013-07-24 22:12:00,82.8,77.7,29.48,NW,309,0.0,0.0,85,0.00,,,0.75,VWS V14.01,2013-07-25 02:12:00,
2013-07-24 22:17:00,82.8,77.8,29.48,NW,309,0.0,2.9,85,0.00,,,0.75,VWS V14.01,2013-07-25 02:17:00,
2013-07-24 22:22:00,83.0,78.0,29.48,NW,309,0.0,0.0,85,0.00,,,0.75,VWS V14.01,2013-07-25 02:22:00,
2013-07-24 22:27:00,82.8,77.9,29.48,NW,309,0.0,0.0,85,0.00,,,0.75,VWS V14.01,2013-07-25 02:27:00,
2013-07-24 22:32:00,82.9,77.9,29.48,SSE,156,0.0,2.1,85,0.00,,,0.75,VWS V14.01,2013-07-25 02:32:00,
2013-07-24 22:37:00,82.9,78.0,29.48,SSE,156,0.0,0.0,85,0.00,,,0.75,VWS V14.01,2013-07-25 02:37:00,
2013-07-24 22:42:00,82.7,77.8,29.48,SSE,156,0.0,0.0,85,0.00,,,0.75,VWS V14.01,2013-07-25 02:42:00,
2013-07-24 22:47:00,82.8,77.9,29.48,SSE,156,0.0,0.0,85,0.00,,,0.75,VWS V14.01,2013-07-25 02:47:00,
2013-07-24 22:52:00,82.5,77.8,29.48,SSE,156,0.0,0.0,86,0.00,,,0.75,VWS V14.01,2013-07-25 02:52:00,
2013-07-24 22:57:00,82.5,77.8,29.48,SSE,156,0.0,0.0,86,0.00,,,0.75,VWS V14.01,2013-07-25 02:57:00,
2013-07-24 23:02:00,82.5,77.8,29.48,SSE,156,0.0,0.0,86,0.00,,,0.75,VWS V14.01,2013-07-25 03:02:00,
2013-07-24 23:07:00,82.4,77.8,29.48,SSE,156,0.0,0.0,86,0.00,,,0.75,VWS V14.01,2013-07-25 03:07:00,
2013-07-24 23:13:00,82.4,77.8,29.48,SSE,156,0.0,0.0,86,0.00,,,0.75,VWS V14.01,2013-07-25 03:13:00,
2013-07-24 23:18:00,82.4,77.9,29.48,SSE,156,0.0,0.0,86,0.00,,,0.75,VWS V14.01,2013-07-25 03:18:00,
2013-07-24 23:23:00,82.4,77.9,29.48,SSE,156,0.0,0.0,86,0.00,,,0.75,VWS V14.01,2013-07-25 03:23:00,
2013-07-24 23:28:00,82.5,78.0,29.48,SSE,156,0.0,0.0,86,0.00,,,0.75,VWS V14.01,2013-07-25 03:28:00,
2013-07-24 23:34:00,82.3,77.8,29.48,SSE,156,0.0,0.0,86,0.00,,,0.75,VWS V14.01,2013-07-25 03:34:00,
2013-07-24 23:40:00,82.1,77.6,29.48,SSE,156,0.0,0.0,86,0.00,,,0.75,VWS V14.01,2013-07-25 03:40:00,
2013-07-24 23:44:00,82.2,77.8,29.48,SSE,156,0.0,0.0,87,0.00,,,0.75,VWS V14.01,2013-07-25 03:44:00,
2013-07-24 23:50:00,82.1,77.8,29.48,SSE,156,0.0,0.0,87,0.00,,,0.75,VWS V14.01,2013-07-25 03:50:00,
2013-07-24 23:55:00,82.1,77.9,29.48,North,8,0.0,4.9,87,0.00,,,0.75,VWS V14.01,2013-07-25 03:55:00,